sensor_id;sensor_type;location;lat;lon;timestamp;P1;durP1;ratioP1;P2;durP2;ratioP2
70715;SDS011;59053;50.832;12.882;2023-02-28T00:01:29;10.40;;;3.45;;
70715;SDS011;59053;50.832;12.882;2023-02-28T00:03:55;9.18;;;3.35;;
70715;SDS011;59053;50.832;12.882;2023-02-28T00:06:21;9.40;;;3.50;;
70715;SDS011;59053;50.832;12.882;2023-02-28T00:08:46;9.90;;;3.58;;
70715;SDS011;59053;50.832;12.882;2023-02-28T00:14:00;8.70;;;3.45;;
70715;SDS011;59053;50.832;12.882;2023-02-28T00:16:33;8.23;;;3.38;;
70715;SDS011;59053;50.832;12.882;2023-02-28T00:18:58;11.65;;;3.28;;
70715;SDS011;59053;50.832;12.882;2023-02-28T00:21:30;8.23;;;3.30;;
70715;SDS011;59053;50.832;12.882;2023-02-28T00:23:55;8.38;;;3.58;;
70715;SDS011;59053;50.832;12.882;2023-02-28T00:26:20;8.10;;;3.17;;
70715;SDS011;59053;50.832;12.882;2023-02-28T00:32:09;10.00;;;3.35;;
70715;SDS011;59053;50.832;12.882;2023-02-28T00:34:42;8.63;;;3.45;;
70715;SDS011;59053;50.832;12.882;2023-02-28T00:43:21;9.15;;;3.42;;
70715;SDS011;59053;50.832;12.882;2023-02-28T00:46:02;8.77;;;3.50;;
70715;SDS011;59053;50.832;12.882;2023-02-28T00:48:29;9.55;;;3.47;;
70715;SDS011;59053;50.832;12.882;2023-02-28T00:53:57;7.72;;;3.15;;
70715;SDS011;59053;50.832;12.882;2023-02-28T00:56:39;6.63;;;2.95;;
70715;SDS011;59053;50.832;12.882;2023-02-28T00:59:04;10.53;;;3.10;;
70715;SDS011;59053;50.832;12.882;2023-02-28T01:01:30;10.05;;;3.50;;
70715;SDS011;59053;50.832;12.882;2023-02-28T01:03:57;8.80;;;3.40;;
70715;SDS011;59053;50.832;12.882;2023-02-28T01:06:22;9.00;;;3.50;;
70715;SDS011;59053;50.832;12.882;2023-02-28T01:08:48;9.30;;;3.17;;
70715;SDS011;59053;50.832;12.882;2023-02-28T01:11:15;9.25;;;3.33;;
70715;SDS011;59053;50.832;12.882;2023-02-28T01:13:42;8.40;;;3.33;;
70715;SDS011;59053;50.832;12.882;2023-02-28T01:16:15;8.02;;;3.30;;
70715;SDS011;59053;50.832;12.882;2023-02-28T01:18:41;7.70;;;3.00;;
70715;SDS011;59053;50.832;12.882;2023-02-28T01:21:11;8.63;;;3.25;;
70715;SDS011;59053;50.832;12.882;2023-02-28T01:23:39;8.43;;;2.93;;
70715;SDS011;59053;50.832;12.882;2023-02-28T01:28:51;9.80;;;3.42;;
70715;SDS011;59053;50.832;12.882;2023-02-28T01:31:17;9.88;;;3.17;;
70715;SDS011;59053;50.832;12.882;2023-02-28T01:33:44;7.00;;;3.05;;
70715;SDS011;59053;50.832;12.882;2023-02-28T01:36:24;10.27;;;2.70;;
70715;SDS011;59053;50.832;12.882;2023-02-28T01:45:31;7.05;;;3.08;;
70715;SDS011;59053;50.832;12.882;2023-02-28T01:48:13;8.50;;;3.57;;
70715;SDS011;59053;50.832;12.882;2023-02-28T01:50:44;9.48;;;3.83;;
70715;SDS011;59053;50.832;12.882;2023-02-28T01:56:11;9.52;;;3.80;;
70715;SDS011;59053;50.832;12.882;2023-02-28T01:58:47;9.43;;;3.50;;
70715;SDS011;59053;50.832;12.882;2023-02-28T02:01:15;8.47;;;3.17;;
70715;SDS011;59053;50.832;12.882;2023-02-28T02:03:48;7.97;;;3.30;;
70715;SDS011;59053;50.832;12.882;2023-02-28T02:06:22;9.40;;;3.40;;
70715;SDS011;59053;50.832;12.882;2023-02-28T02:08:48;9.52;;;3.25;;
70715;SDS011;59053;50.832;12.882;2023-02-28T02:11:16;9.67;;;3.60;;
70715;SDS011;59053;50.832;12.882;2023-02-28T02:16:33;9.38;;;3.13;;
70715;SDS011;59053;50.832;12.882;2023-02-28T02:19:08;9.60;;;3.20;;
70715;SDS011;59053;50.832;12.882;2023-02-28T02:24:51;9.80;;;3.05;;
70715;SDS011;59053;50.832;12.882;2023-02-28T02:30:43;10.10;;;3.60;;
70715;SDS011;59053;50.832;12.882;2023-02-28T02:36:18;9.77;;;3.57;;
70715;SDS011;59053;50.832;12.882;2023-02-28T02:38:56;11.18;;;4.00;;
70715;SDS011;59053;50.832;12.882;2023-02-28T02:44:27;10.10;;;3.55;;
70715;SDS011;59053;50.832;12.882;2023-02-28T02:50:35;9.63;;;3.60;;
70715;SDS011;59053;50.832;12.882;2023-02-28T02:56:49;11.88;;;4.03;;
70715;SDS011;59053;50.832;12.882;2023-02-28T02:59:17;12.93;;;4.10;;
70715;SDS011;59053;50.832;12.882;2023-02-28T03:01:50;11.75;;;4.07;;
70715;SDS011;59053;50.832;12.882;2023-02-28T03:10:28;9.40;;;3.30;;
70715;SDS011;59053;50.832;12.882;2023-02-28T03:13:07;10.27;;;3.30;;
70715;SDS011;59053;50.832;12.882;2023-02-28T03:15:45;9.30;;;3.58;;
70715;SDS011;59053;50.832;12.882;2023-02-28T03:22:01;10.35;;;3.83;;
70715;SDS011;59053;50.832;12.882;2023-02-28T03:33:28;11.50;;;3.67;;
70715;SDS011;59053;50.832;12.882;2023-02-28T03:41:32;11.95;;;3.97;;
70715;SDS011;59053;50.832;12.882;2023-02-28T03:44:12;11.73;;;4.10;;
70715;SDS011;59053;50.832;12.882;2023-02-28T03:49:37;11.02;;;4.05;;
70715;SDS011;59053;50.832;12.882;2023-02-28T03:52:44;13.63;;;4.05;;
70715;SDS011;59053;50.832;12.882;2023-02-28T03:55:14;12.25;;;4.40;;
70715;SDS011;59053;50.832;12.882;2023-02-28T03:57:43;12.18;;;4.20;;
70715;SDS011;59053;50.832;12.882;2023-02-28T04:00:17;12.07;;;4.53;;
70715;SDS011;59053;50.832;12.882;2023-02-28T04:02:45;13.80;;;4.22;;
70715;SDS011;59053;50.832;12.882;2023-02-28T04:05:13;13.50;;;4.70;;
70715;SDS011;59053;50.832;12.882;2023-02-28T04:07:45;11.88;;;4.53;;
70715;SDS011;59053;50.832;12.882;2023-02-28T04:10:11;11.90;;;4.07;;
70715;SDS011;59053;50.832;12.882;2023-02-28T04:12:36;11.80;;;4.07;;
70715;SDS011;59053;50.832;12.882;2023-02-28T04:18:00;12.80;;;4.50;;
70715;SDS011;59053;50.832;12.882;2023-02-28T04:20:25;11.95;;;4.57;;
70715;SDS011;59053;50.832;12.882;2023-02-28T04:22:51;11.33;;;4.37;;
70715;SDS011;59053;50.832;12.882;2023-02-28T04:25:23;12.60;;;4.90;;
70715;SDS011;59053;50.832;12.882;2023-02-28T04:27:49;13.65;;;4.90;;
70715;SDS011;59053;50.832;12.882;2023-02-28T04:30:14;10.63;;;4.37;;
70715;SDS011;59053;50.832;12.882;2023-02-28T04:32:40;12.00;;;4.80;;
70715;SDS011;59053;50.832;12.882;2023-02-28T04:35:05;11.43;;;4.30;;
70715;SDS011;59053;50.832;12.882;2023-02-28T04:37:31;13.57;;;4.30;;
70715;SDS011;59053;50.832;12.882;2023-02-28T04:42:49;13.90;;;4.43;;
70715;SDS011;59053;50.832;12.882;2023-02-28T04:51:10;11.85;;;4.75;;
70715;SDS011;59053;50.832;12.882;2023-02-28T04:53:43;11.73;;;4.68;;
70715;SDS011;59053;50.832;12.882;2023-02-28T04:56:26;11.18;;;4.55;;
70715;SDS011;59053;50.832;12.882;2023-02-28T04:59:02;12.77;;;4.40;;
70715;SDS011;59053;50.832;12.882;2023-02-28T05:01:36;13.15;;;4.97;;
70715;SDS011;59053;50.832;12.882;2023-02-28T05:06:59;18.20;;;5.55;;
70715;SDS011;59053;50.832;12.882;2023-02-28T05:09:26;18.20;;;6.10;;
70715;SDS011;59053;50.832;12.882;2023-02-28T05:11:52;18.90;;;5.93;;
70715;SDS011;59053;50.832;12.882;2023-02-28T05:14:17;16.13;;;6.15;;
70715;SDS011;59053;50.832;12.882;2023-02-28T05:16:45;19.87;;;7.30;;
70715;SDS011;59053;50.832;12.882;2023-02-28T05:22:09;19.88;;;6.70;;
70715;SDS011;59053;50.832;12.882;2023-02-28T05:24:38;20.80;;;7.75;;
70715;SDS011;59053;50.832;12.882;2023-02-28T05:27:03;20.73;;;7.38;;
70715;SDS011;59053;50.832;12.882;2023-02-28T05:29:31;18.48;;;6.70;;
70715;SDS011;59053;50.832;12.882;2023-02-28T05:31:56;18.30;;;7.10;;
70715;SDS011;59053;50.832;12.882;2023-02-28T05:34:22;20.58;;;7.25;;
70715;SDS011;59053;50.832;12.882;2023-02-28T05:39:41;16.02;;;6.63;;
70715;SDS011;59053;50.832;12.882;2023-02-28T05:42:07;18.87;;;7.13;;
70715;SDS011;59053;50.832;12.882;2023-02-28T05:44:45;18.88;;;6.75;;
70715;SDS011;59053;50.832;12.882;2023-02-28T05:47:18;19.60;;;6.65;;
70715;SDS011;59053;50.832;12.882;2023-02-28T05:53:10;21.58;;;5.82;;
70715;SDS011;59053;50.832;12.882;2023-02-28T05:55:36;17.02;;;5.82;;
70715;SDS011;59053;50.832;12.882;2023-02-28T05:58:08;19.38;;;6.75;;
70715;SDS011;59053;50.832;12.882;2023-02-28T06:00:33;15.98;;;6.15;;
70715;SDS011;59053;50.832;12.882;2023-02-28T06:03:16;15.20;;;5.75;;
70715;SDS011;59053;50.832;12.882;2023-02-28T06:05:42;20.40;;;6.35;;
70715;SDS011;59053;50.832;12.882;2023-02-28T06:08:07;17.77;;;6.80;;
70715;SDS011;59053;50.832;12.882;2023-02-28T06:10:34;20.57;;;7.17;;
70715;SDS011;59053;50.832;12.882;2023-02-28T06:13:00;17.67;;;6.95;;
70715;SDS011;59053;50.832;12.882;2023-02-28T06:15:45;16.42;;;6.72;;
70715;SDS011;59053;50.832;12.882;2023-02-28T06:18:11;18.00;;;6.90;;
70715;SDS011;59053;50.832;12.882;2023-02-28T06:20:51;17.83;;;6.37;;
70715;SDS011;59053;50.832;12.882;2023-02-28T06:26:10;20.00;;;6.35;;
70715;SDS011;59053;50.832;12.882;2023-02-28T06:28:36;18.75;;;6.82;;
70715;SDS011;59053;50.832;12.882;2023-02-28T06:31:14;18.60;;;7.60;;
70715;SDS011;59053;50.832;12.882;2023-02-28T06:33:41;17.88;;;6.88;;
70715;SDS011;59053;50.832;12.882;2023-02-28T06:36:26;20.50;;;8.30;;
70715;SDS011;59053;50.832;12.882;2023-02-28T06:38:51;8.23;;;3.83;;
70715;SDS011;59053;50.832;12.882;2023-02-28T06:41:20;16.20;;;5.85;;
70715;SDS011;59053;50.832;12.882;2023-02-28T06:44:02;17.58;;;6.72;;
70715;SDS011;59053;50.832;12.882;2023-02-28T06:46:28;17.00;;;6.55;;
70715;SDS011;59053;50.832;12.882;2023-02-28T06:48:54;20.40;;;7.07;;
70715;SDS011;59053;50.832;12.882;2023-02-28T06:51:19;19.13;;;6.83;;
70715;SDS011;59053;50.832;12.882;2023-02-28T06:53:47;19.30;;;6.90;;
70715;SDS011;59053;50.832;12.882;2023-02-28T06:59:12;14.43;;;4.85;;
70715;SDS011;59053;50.832;12.882;2023-02-28T07:01:37;15.65;;;6.20;;
70715;SDS011;59053;50.832;12.882;2023-02-28T07:04:04;21.75;;;7.18;;
70715;SDS011;59053;50.832;12.882;2023-02-28T07:06:45;18.40;;;6.50;;
70715;SDS011;59053;50.832;12.882;2023-02-28T07:09:11;19.08;;;6.88;;
70715;SDS011;59053;50.832;12.882;2023-02-28T07:11:36;19.03;;;6.57;;
70715;SDS011;59053;50.832;12.882;2023-02-28T07:14:01;18.37;;;7.37;;
70715;SDS011;59053;50.832;12.882;2023-02-28T07:16:27;13.40;;;5.18;;
70715;SDS011;59053;50.832;12.882;2023-02-28T07:18:53;18.73;;;6.80;;
70715;SDS011;59053;50.832;12.882;2023-02-28T07:21:19;15.65;;;5.13;;
70715;SDS011;59053;50.832;12.882;2023-02-28T07:23:44;15.33;;;5.33;;
70715;SDS011;59053;50.832;12.882;2023-02-28T07:26:14;18.70;;;6.53;;
70715;SDS011;59053;50.832;12.882;2023-02-28T07:28:41;19.58;;;7.20;;
70715;SDS011;59053;50.832;12.882;2023-02-28T07:31:07;21.75;;;8.40;;
70715;SDS011;59053;50.832;12.882;2023-02-28T07:33:34;19.88;;;6.40;;
70715;SDS011;59053;50.832;12.882;2023-02-28T07:39:47;9.25;;;4.15;;
70715;SDS011;59053;50.832;12.882;2023-02-28T07:42:12;19.47;;;7.20;;
70715;SDS011;59053;50.832;12.882;2023-02-28T07:44:44;16.60;;;4.97;;
70715;SDS011;59053;50.832;12.882;2023-02-28T07:47:16;16.75;;;5.75;;
70715;SDS011;59053;50.832;12.882;2023-02-28T07:49:41;8.20;;;3.78;;
70715;SDS011;59053;50.832;12.882;2023-02-28T07:52:15;8.53;;;3.33;;
70715;SDS011;59053;50.832;12.882;2023-02-28T07:54:40;10.57;;;4.20;;
70715;SDS011;59053;50.832;12.882;2023-02-28T07:57:05;9.67;;;3.37;;
70715;SDS011;59053;50.832;12.882;2023-02-28T07:59:31;16.33;;;5.17;;
70715;SDS011;59053;50.832;12.882;2023-02-28T08:01:57;13.48;;;4.53;;
70715;SDS011;59053;50.832;12.882;2023-02-28T08:04:24;13.40;;;4.57;;
70715;SDS011;59053;50.832;12.882;2023-02-28T08:06:49;4.65;;;2.28;;
70715;SDS011;59053;50.832;12.882;2023-02-28T08:09:17;18.63;;;6.05;;
70715;SDS011;59053;50.832;12.882;2023-02-28T08:11:43;15.60;;;5.10;;
70715;SDS011;59053;50.832;12.882;2023-02-28T08:14:09;14.60;;;5.90;;
70715;SDS011;59053;50.832;12.882;2023-02-28T08:16:34;12.37;;;4.10;;
70715;SDS011;59053;50.832;12.882;2023-02-28T08:18:59;15.17;;;5.30;;
70715;SDS011;59053;50.832;12.882;2023-02-28T08:24:16;14.77;;;6.00;;
70715;SDS011;59053;50.832;12.882;2023-02-28T08:26:42;14.32;;;4.75;;
70715;SDS011;59053;50.832;12.882;2023-02-28T08:29:07;16.37;;;5.13;;
70715;SDS011;59053;50.832;12.882;2023-02-28T08:31:33;13.68;;;4.28;;
70715;SDS011;59053;50.832;12.882;2023-02-28T08:34:06;10.80;;;4.35;;
70715;SDS011;59053;50.832;12.882;2023-02-28T08:36:32;8.27;;;3.25;;
70715;SDS011;59053;50.832;12.882;2023-02-28T08:38:57;16.17;;;5.23;;
70715;SDS011;59053;50.832;12.882;2023-02-28T08:44:44;13.85;;;4.63;;
70715;SDS011;59053;50.832;12.882;2023-02-28T08:47:09;18.03;;;5.33;;
70715;SDS011;59053;50.832;12.882;2023-02-28T08:49:36;13.20;;;4.77;;
70715;SDS011;59053;50.832;12.882;2023-02-28T08:52:02;10.88;;;4.35;;
70715;SDS011;59053;50.832;12.882;2023-02-28T08:54:28;14.00;;;5.07;;
70715;SDS011;59053;50.832;12.882;2023-02-28T08:57:08;9.52;;;3.38;;
70715;SDS011;59053;50.832;12.882;2023-02-28T08:59:46;12.82;;;4.35;;
70715;SDS011;59053;50.832;12.882;2023-02-28T09:02:14;11.95;;;4.82;;
70715;SDS011;59053;50.832;12.882;2023-02-28T09:04:40;11.68;;;4.78;;
70715;SDS011;59053;50.832;12.882;2023-02-28T09:07:06;13.98;;;4.55;;
70715;SDS011;59053;50.832;12.882;2023-02-28T09:09:32;12.63;;;4.70;;
70715;SDS011;59053;50.832;12.882;2023-02-28T09:11:59;13.73;;;4.73;;
70715;SDS011;59053;50.832;12.882;2023-02-28T09:14:25;11.13;;;4.70;;
70715;SDS011;59053;50.832;12.882;2023-02-28T09:17:06;12.73;;;4.73;;
70715;SDS011;59053;50.832;12.882;2023-02-28T09:19:31;7.80;;;3.00;;
70715;SDS011;59053;50.832;12.882;2023-02-28T09:21:57;12.23;;;4.63;;
70715;SDS011;59053;50.832;12.882;2023-02-28T09:24:23;12.45;;;4.75;;
70715;SDS011;59053;50.832;12.882;2023-02-28T09:27:00;13.63;;;5.07;;
70715;SDS011;59053;50.832;12.882;2023-02-28T09:29:25;11.10;;;4.20;;
70715;SDS011;59053;50.832;12.882;2023-02-28T09:32:01;8.50;;;2.80;;
70715;SDS011;59053;50.832;12.882;2023-02-28T09:34:27;8.95;;;3.67;;
70715;SDS011;59053;50.832;12.882;2023-02-28T09:36:52;13.43;;;4.93;;
70715;SDS011;59053;50.832;12.882;2023-02-28T09:39:38;12.57;;;4.85;;
70715;SDS011;59053;50.832;12.882;2023-02-28T09:54:22;11.70;;;3.55;;
70715;SDS011;59053;50.832;12.882;2023-02-28T09:56:52;13.50;;;4.60;;
70715;SDS011;59053;50.832;12.882;2023-02-28T10:04:50;9.63;;;3.85;;
70715;SDS011;59053;50.832;12.882;2023-02-28T10:10:17;9.03;;;3.13;;
70715;SDS011;59053;50.832;12.882;2023-02-28T10:12:57;12.20;;;4.40;;
70715;SDS011;59053;50.832;12.882;2023-02-28T10:15:25;8.88;;;3.38;;
70715;SDS011;59053;50.832;12.882;2023-02-28T10:18:00;12.95;;;4.82;;
70715;SDS011;59053;50.832;12.882;2023-02-28T10:20:28;5.68;;;2.70;;
70715;SDS011;59053;50.832;12.882;2023-02-28T10:23:00;11.93;;;4.28;;
70715;SDS011;59053;50.832;12.882;2023-02-28T10:25:50;11.40;;;4.10;;
70715;SDS011;59053;50.832;12.882;2023-02-28T10:31:42;8.07;;;3.45;;
70715;SDS011;59053;50.832;12.882;2023-02-28T10:34:20;7.27;;;3.37;;
70715;SDS011;59053;50.832;12.882;2023-02-28T10:36:45;10.77;;;4.50;;
70715;SDS011;59053;50.832;12.882;2023-02-28T10:42:29;13.37;;;4.77;;
70715;SDS011;59053;50.832;12.882;2023-02-28T10:47:37;15.73;;;5.30;;
70715;SDS011;59053;50.832;12.882;2023-02-28T10:50:32;13.65;;;5.32;;
70715;SDS011;59053;50.832;12.882;2023-02-28T10:55:35;9.67;;;3.60;;
70715;SDS011;59053;50.832;12.882;2023-02-28T10:58:00;9.45;;;3.78;;
70715;SDS011;59053;50.832;12.882;2023-02-28T11:00:26;12.90;;;4.90;;
70715;SDS011;59053;50.832;12.882;2023-02-28T11:02:58;15.77;;;4.90;;
70715;SDS011;59053;50.832;12.882;2023-02-28T11:07:57;7.63;;;2.63;;
70715;SDS011;59053;50.832;12.882;2023-02-28T11:10:28;8.45;;;4.07;;
70715;SDS011;59053;50.832;12.882;2023-02-28T11:12:56;13.15;;;5.13;;
70715;SDS011;59053;50.832;12.882;2023-02-28T11:18:14;12.67;;;5.00;;
70715;SDS011;59053;50.832;12.882;2023-02-28T11:20:49;11.43;;;3.75;;
70715;SDS011;59053;50.832;12.882;2023-02-28T11:23:15;15.93;;;5.15;;
70715;SDS011;59053;50.832;12.882;2023-02-28T11:25:47;9.13;;;3.50;;
70715;SDS011;59053;50.832;12.882;2023-02-28T11:28:32;8.57;;;3.45;;
70715;SDS011;59053;50.832;12.882;2023-02-28T11:33:55;14.38;;;4.93;;
70715;SDS011;59053;50.832;12.882;2023-02-28T11:36:24;12.60;;;4.50;;
70715;SDS011;59053;50.832;12.882;2023-02-28T11:38:52;15.15;;;5.60;;
70715;SDS011;59053;50.832;12.882;2023-02-28T11:53:00;14.35;;;5.28;;
70715;SDS011;59053;50.832;12.882;2023-02-28T11:55:44;15.47;;;5.60;;
70715;SDS011;59053;50.832;12.882;2023-02-28T12:01:19;7.00;;;3.25;;
70715;SDS011;59053;50.832;12.882;2023-02-28T12:13:44;14.43;;;5.40;;
70715;SDS011;59053;50.832;12.882;2023-02-28T12:16:28;11.13;;;4.32;;
70715;SDS011;59053;50.832;12.882;2023-02-28T12:19:01;6.38;;;2.95;;
70715;SDS011;59053;50.832;12.882;2023-02-28T12:21:41;14.57;;;5.20;;
70715;SDS011;59053;50.832;12.882;2023-02-28T12:24:20;8.83;;;3.13;;
70715;SDS011;59053;50.832;12.882;2023-02-28T12:27:18;10.52;;;4.47;;
70715;SDS011;59053;50.832;12.882;2023-02-28T12:29:49;9.15;;;3.88;;
70715;SDS011;59053;50.832;12.882;2023-02-28T12:32:39;13.05;;;5.05;;
70715;SDS011;59053;50.832;12.882;2023-02-28T12:35:11;12.20;;;5.68;;
70715;SDS011;59053;50.832;12.882;2023-02-28T12:37:40;13.80;;;5.40;;
70715;SDS011;59053;50.832;12.882;2023-02-28T12:40:12;8.63;;;2.95;;
70715;SDS011;59053;50.832;12.882;2023-02-28T12:42:42;15.25;;;5.82;;
70715;SDS011;59053;50.832;12.882;2023-02-28T12:45:17;14.60;;;6.32;;
70715;SDS011;59053;50.832;12.882;2023-02-28T12:47:44;9.63;;;3.45;;
70715;SDS011;59053;50.832;12.882;2023-02-28T12:50:11;8.43;;;3.23;;
70715;SDS011;59053;50.832;12.882;2023-02-28T13:04:01;9.80;;;4.13;;
70715;SDS011;59053;50.832;12.882;2023-02-28T13:09:41;10.43;;;4.88;;
70715;SDS011;59053;50.832;12.882;2023-02-28T13:12:17;11.20;;;4.65;;
70715;SDS011;59053;50.832;12.882;2023-02-28T13:14:42;7.67;;;3.03;;
70715;SDS011;59053;50.832;12.882;2023-02-28T13:19:44;6.67;;;3.77;;
70715;SDS011;59053;50.832;12.882;2023-02-28T13:26:09;10.55;;;4.57;;
70715;SDS011;59053;50.832;12.882;2023-02-28T13:39:54;8.70;;;3.47;;
70715;SDS011;59053;50.832;12.882;2023-02-28T13:48:30;13.70;;;4.75;;
70715;SDS011;59053;50.832;12.882;2023-02-28T13:57:52;8.77;;;2.90;;
70715;SDS011;59053;50.832;12.882;2023-02-28T14:00:52;13.98;;;4.07;;
70715;SDS011;59053;50.832;12.882;2023-02-28T14:03:50;11.02;;;5.35;;
70715;SDS011;59053;50.832;12.882;2023-02-28T14:06:32;9.48;;;4.72;;
70715;SDS011;59053;50.832;12.882;2023-02-28T14:11:50;15.57;;;5.30;;
70715;SDS011;59053;50.832;12.882;2023-02-28T14:23:20;16.90;;;6.63;;
70715;SDS011;59053;50.832;12.882;2023-02-28T14:38:17;7.32;;;3.47;;
70715;SDS011;59053;50.832;12.882;2023-02-28T14:44:53;16.25;;;6.55;;
70715;SDS011;59053;50.832;12.882;2023-02-28T14:47:21;12.03;;;5.23;;
70715;SDS011;59053;50.832;12.882;2023-02-28T14:49:50;15.38;;;5.63;;
70715;SDS011;59053;50.832;12.882;2023-02-28T14:52:20;17.00;;;6.25;;
70715;SDS011;59053;50.832;12.882;2023-02-28T14:54:51;7.93;;;4.07;;
70715;SDS011;59053;50.832;12.882;2023-02-28T14:57:32;18.10;;;6.82;;
70715;SDS011;59053;50.832;12.882;2023-02-28T15:03:17;13.63;;;4.82;;
70715;SDS011;59053;50.832;12.882;2023-02-28T15:05:56;17.15;;;6.03;;
70715;SDS011;59053;50.832;12.882;2023-02-28T15:08:23;13.45;;;6.30;;
70715;SDS011;59053;50.832;12.882;2023-02-28T15:10:54;9.07;;;4.00;;
70715;SDS011;59053;50.832;12.882;2023-02-28T15:13:44;10.43;;;4.83;;
70715;SDS011;59053;50.832;12.882;2023-02-28T15:21:44;10.13;;;4.45;;
70715;SDS011;59053;50.832;12.882;2023-02-28T15:27:12;16.80;;;6.20;;
70715;SDS011;59053;50.832;12.882;2023-02-28T15:29:44;8.85;;;4.45;;
70715;SDS011;59053;50.832;12.882;2023-02-28T15:32:32;11.30;;;5.18;;
70715;SDS011;59053;50.832;12.882;2023-02-28T15:34:59;11.48;;;4.25;;
70715;SDS011;59053;50.832;12.882;2023-02-28T15:37:54;11.85;;;4.78;;
70715;SDS011;59053;50.832;12.882;2023-02-28T15:40:28;9.03;;;4.57;;
70715;SDS011;59053;50.832;12.882;2023-02-28T15:45:53;16.00;;;6.53;;
70715;SDS011;59053;50.832;12.882;2023-02-28T15:53:47;18.07;;;6.23;;
70715;SDS011;59053;50.832;12.882;2023-02-28T15:58:54;25.38;;;10.57;;
70715;SDS011;59053;50.832;12.882;2023-02-28T16:03:50;18.52;;;7.07;;
70715;SDS011;59053;50.832;12.882;2023-02-28T16:06:27;21.23;;;7.80;;
70715;SDS011;59053;50.832;12.882;2023-02-28T16:09:04;18.70;;;7.53;;
70715;SDS011;59053;50.832;12.882;2023-02-28T16:11:38;20.80;;;7.55;;
70715;SDS011;59053;50.832;12.882;2023-02-28T16:14:06;21.95;;;7.55;;
70715;SDS011;59053;50.832;12.882;2023-02-28T16:16:47;20.33;;;6.22;;
70715;SDS011;59053;50.832;12.882;2023-02-28T16:19:15;18.20;;;6.57;;
70715;SDS011;59053;50.832;12.882;2023-02-28T16:21:40;19.23;;;7.40;;
70715;SDS011;59053;50.832;12.882;2023-02-28T16:24:06;17.23;;;7.40;;
70715;SDS011;59053;50.832;12.882;2023-02-28T16:26:31;18.67;;;7.00;;
70715;SDS011;59053;50.832;12.882;2023-02-28T16:31:55;19.40;;;7.40;;
70715;SDS011;59053;50.832;12.882;2023-02-28T16:34:20;21.23;;;7.33;;
70715;SDS011;59053;50.832;12.882;2023-02-28T16:36:46;20.45;;;7.63;;
70715;SDS011;59053;50.832;12.882;2023-02-28T16:43:15;21.23;;;7.07;;
70715;SDS011;59053;50.832;12.882;2023-02-28T16:45:44;26.23;;;8.07;;
70715;SDS011;59053;50.832;12.882;2023-02-28T16:48:16;11.27;;;4.68;;
70715;SDS011;59053;50.832;12.882;2023-02-28T16:50:43;22.70;;;7.53;;
70715;SDS011;59053;50.832;12.882;2023-02-28T16:53:10;23.00;;;7.40;;
70715;SDS011;59053;50.832;12.882;2023-02-28T16:55:36;18.75;;;7.53;;
70715;SDS011;59053;50.832;12.882;2023-02-28T16:58:02;23.02;;;7.50;;
70715;SDS011;59053;50.832;12.882;2023-02-28T17:00:29;19.30;;;7.95;;
70715;SDS011;59053;50.832;12.882;2023-02-28T17:03:03;20.33;;;7.57;;
70715;SDS011;59053;50.832;12.882;2023-02-28T17:05:29;24.30;;;8.73;;
70715;SDS011;59053;50.832;12.882;2023-02-28T17:10:55;19.90;;;6.78;;
70715;SDS011;59053;50.832;12.882;2023-02-28T17:13:20;16.35;;;6.32;;
70715;SDS011;59053;50.832;12.882;2023-02-28T17:15:59;11.47;;;4.63;;
70715;SDS011;59053;50.832;12.882;2023-02-28T17:21:16;14.55;;;6.47;;
70715;SDS011;59053;50.832;12.882;2023-02-28T17:23:44;22.00;;;8.77;;
70715;SDS011;59053;50.832;12.882;2023-02-28T17:26:14;23.13;;;8.70;;
70715;SDS011;59053;50.832;12.882;2023-02-28T17:31:42;23.85;;;8.57;;
70715;SDS011;59053;50.832;12.882;2023-02-28T17:34:14;24.50;;;8.65;;
70715;SDS011;59053;50.832;12.882;2023-02-28T17:36:51;36.30;;;13.97;;
70715;SDS011;59053;50.832;12.882;2023-02-28T17:39:18;25.98;;;9.82;;
70715;SDS011;59053;50.832;12.882;2023-02-28T17:41:49;20.63;;;7.72;;
70715;SDS011;59053;50.832;12.882;2023-02-28T17:44:17;19.45;;;5.15;;
70715;SDS011;59053;50.832;12.882;2023-02-28T17:46:45;24.45;;;9.00;;
70715;SDS011;59053;50.832;12.882;2023-02-28T17:49:11;23.10;;;8.93;;
70715;SDS011;59053;50.832;12.882;2023-02-28T17:51:37;25.35;;;9.05;;
70715;SDS011;59053;50.832;12.882;2023-02-28T17:54:02;24.07;;;8.90;;
70715;SDS011;59053;50.832;12.882;2023-02-28T17:56:30;20.98;;;6.97;;
70715;SDS011;59053;50.832;12.882;2023-02-28T17:58:56;24.30;;;8.37;;
70715;SDS011;59053;50.832;12.882;2023-02-28T18:01:30;26.83;;;9.30;;
70715;SDS011;59053;50.832;12.882;2023-02-28T18:04:03;20.23;;;7.25;;
70715;SDS011;59053;50.832;12.882;2023-02-28T18:06:31;24.95;;;8.82;;
70715;SDS011;59053;50.832;12.882;2023-02-28T18:09:16;27.27;;;9.33;;
70715;SDS011;59053;50.832;12.882;2023-02-28T18:14:34;24.92;;;9.23;;
70715;SDS011;59053;50.832;12.882;2023-02-28T18:17:00;26.57;;;9.93;;
70715;SDS011;59053;50.832;12.882;2023-02-28T18:19:26;31.55;;;11.18;;
70715;SDS011;59053;50.832;12.882;2023-02-28T18:21:52;45.07;;;14.50;;
70715;SDS011;59053;50.832;12.882;2023-02-28T18:24:19;43.15;;;14.32;;
70715;SDS011;59053;50.832;12.882;2023-02-28T18:27:07;55.67;;;17.23;;
70715;SDS011;59053;50.832;12.882;2023-02-28T18:29:32;32.67;;;11.18;;
70715;SDS011;59053;50.832;12.882;2023-02-28T18:35:10;45.08;;;15.75;;
70715;SDS011;59053;50.832;12.882;2023-02-28T18:37:36;31.87;;;12.73;;
70715;SDS011;59053;50.832;12.882;2023-02-28T18:40:14;25.27;;;9.50;;
70715;SDS011;59053;50.832;12.882;2023-02-28T18:42:45;24.55;;;8.63;;
70715;SDS011;59053;50.832;12.882;2023-02-28T18:45:11;26.27;;;9.38;;
70715;SDS011;59053;50.832;12.882;2023-02-28T18:50:27;26.27;;;10.05;;
70715;SDS011;59053;50.832;12.882;2023-02-28T18:53:10;29.13;;;10.88;;
70715;SDS011;59053;50.832;12.882;2023-02-28T18:55:38;29.48;;;10.80;;
70715;SDS011;59053;50.832;12.882;2023-02-28T18:58:05;25.97;;;9.83;;
70715;SDS011;59053;50.832;12.882;2023-02-28T19:00:31;31.25;;;10.55;;
70715;SDS011;59053;50.832;12.882;2023-02-28T19:03:02;29.58;;;10.23;;
70715;SDS011;59053;50.832;12.882;2023-02-28T19:05:28;28.42;;;9.65;;
70715;SDS011;59053;50.832;12.882;2023-02-28T19:07:57;24.93;;;8.80;;
70715;SDS011;59053;50.832;12.882;2023-02-28T19:13:12;29.58;;;9.07;;
70715;SDS011;59053;50.832;12.882;2023-02-28T19:15:38;27.13;;;9.25;;
70715;SDS011;59053;50.832;12.882;2023-02-28T19:18:03;36.87;;;10.63;;
70715;SDS011;59053;50.832;12.882;2023-02-28T19:20:45;29.45;;;10.27;;
70715;SDS011;59053;50.832;12.882;2023-02-28T19:23:12;30.17;;;11.00;;
70715;SDS011;59053;50.832;12.882;2023-02-28T19:25:40;31.00;;;10.70;;
70715;SDS011;59053;50.832;12.882;2023-02-28T19:28:08;28.80;;;10.10;;
70715;SDS011;59053;50.832;12.882;2023-02-28T19:30:45;27.45;;;9.93;;
70715;SDS011;59053;50.832;12.882;2023-02-28T19:33:12;33.90;;;10.30;;
70715;SDS011;59053;50.832;12.882;2023-02-28T19:38:43;28.33;;;9.63;;
70715;SDS011;59053;50.832;12.882;2023-02-28T19:41:17;28.25;;;9.65;;
70715;SDS011;59053;50.832;12.882;2023-02-28T19:43:44;26.23;;;10.10;;
70715;SDS011;59053;50.832;12.882;2023-02-28T19:49:07;28.63;;;9.80;;
70715;SDS011;59053;50.832;12.882;2023-02-28T19:58:41;25.55;;;8.93;;
70715;SDS011;59053;50.832;12.882;2023-02-28T20:01:15;26.35;;;9.20;;
70715;SDS011;59053;50.832;12.882;2023-02-28T20:03:45;26.17;;;9.68;;